• Join FlightAware (Why Join?)
  • Login
  • US Flag 
08:42PM EST


 

Airport Tracker/Info


-or-


 

Live Flight TrackerFlight Track Log ✈ SCX425 ✈ 29-Aug-2013 ✈ KMSP - KLAX

Flight Track Log - Related Links

Times and Time Zones

All times are in EDT time to prevent confusion due to time zone crossing. See the SCX425 flight status page for this flight to view local times or setup timezone preferences in your user account.

Time Position Orientation Groundspeed Altitude Reporting Facility
EDT Latitude Longitude Course Direction KTS MPH feet Rate Location/Type
03:44PM 44.8740 -93.2300 57° Northeast  Level FlightAware
03:49PM 44.7200 -93.5600 235° Southwest  Level FlightAware Approximate
03:53PM 44.8760 -93.2390 169° South 140 161  Level FlightAware
03:53PM 44.8640 -93.2360 170° South 165 190 1,300 4,138 Climbing FlightAware
03:53PM 44.8550 -93.2330 167° South 159 183 2,000 2,250 Climbing FlightAware
03:53PM 44.8390 -93.2280 168° South 181 208 2,500 1,500 Climbing FlightAware
03:54PM 44.8160 -93.2390 199° South 208 239 3,200 1,750 Climbing FlightAware
03:54PM 44.8000 -93.2560 217° Southwest 223 257 3,900 2,250 Climbing FlightAware
03:54PM 44.7920 -93.2700 231° Southwest 236 272 4,400 2,700 Climbing FlightAware
03:55PM 44.7870 -93.2800 235° Southwest 240 276 4,800 3,000 Climbing FlightAware
03:55PM 44.7800 -93.3000 244° Southwest 240 276 5,500 2,500 Climbing FlightAware
03:55PM 44.7670 -93.3300 239° Southwest 254 292 6,300 2,182 Climbing FlightAware
03:55PM 44.7530 -93.3620 238° Southwest 269 310 7,100 2,429 Climbing FlightAware
03:56PM 44.7400 -93.3930 239° Southwest 273 314 8,000 2,813 Climbing FlightAware
03:56PM 44.7330 -93.4110 241° Southwest 275 316 8,600 3,188 Climbing FlightAware
03:56PM 44.7200 -93.4420 239° Southwest 271 312 9,700 1,759 Climbing FlightAware
03:57PM 44.6930 -93.5040 239° Southwest 320 368 10,300 1,151 Climbing FlightAware
03:58PM 44.6670 -93.5690 241° Southwest 350 403 11,100 1,629 Climbing FlightAware
03:58PM 44.6380 -93.6390 240° Southwest 365 420 12,200 2,167 Climbing FlightAware
03:59PM 44.6060 -93.7160 240° Southwest 373 429 13,700 2,348 Climbing FlightAware
03:59PM 44.5770 -93.7850 239° Southwest 382 440 14,900 2,239 Climbing FlightAware
04:00PM 44.5450 -93.8610 239° Southwest 391 450 16,200 2,333 Climbing FlightAware
04:00PM 44.5110 -93.9400 239° Southwest 393 452 17,700 2,294 Climbing FlightAware
04:01PM 44.4810 -94.0110 239° Southwest 399 459 18,800 2,000 Climbing FlightAware
04:02PM 44.4480 -94.0890 239° Southwest 405 466 20,000 1,784 Climbing FlightAware
04:02PM 44.4070 -94.1770 237° Southwest 423 487 21,000 1,701 Climbing FlightAware
04:03PM 44.3720 -94.2430 233° Southwest 430 495 21,900 1,765 Climbing FlightAware
04:03PM 44.3260 -94.3290 233° Southwest 434 499 23,000 1,890 Climbing FlightAware
04:04PM 44.2830 -94.4100 233° Southwest 434 499 24,200 1,800 Climbing FlightAware
04:05PM 44.2440 -94.4840 234° Southwest 437 503 25,100 1,457 Climbing FlightAware
04:05PM 44.1980 -94.5680 233° Southwest 445 512 25,900 1,304 Climbing FlightAware
04:06PM 44.1580 -94.6440 234° Southwest 449 517 26,600 1,371 Climbing FlightAware
04:06PM 44.1120 -94.7270 232° Southwest 451 519 27,500 1,479 Climbing FlightAware
04:07PM 44.0650 -94.8130 233° Southwest 453 521 28,400 1,437 Climbing FlightAware
04:07PM 44.0220 -94.8920 233° Southwest 454 522 29,200 1,612 Climbing FlightAware
04:08PM 43.9810 -94.9660 232° Southwest 450 518 30,200 1,846 Climbing FlightAware
04:09PM 43.9400 -95.0410 233° Southwest 444 511 31,200 1,622 Climbing FlightAware
04:09PM 43.8890 -95.1360 233° Southwest 441 507 32,200 1,333 Climbing FlightAware
04:10PM 43.8520 -95.2020 232° Southwest 441 507 32,800 1,233 Climbing FlightAware
04:10PM 43.8010 -95.2990 234° Southwest 439 505 33,700 1,184 Climbing FlightAware
04:11PM 43.7570 -95.3800 233° Southwest 440 506 34,300 794 Climbing FlightAware
04:12PM 43.7180 -95.4500 232° Southwest 446 513 34,600 568 Climbing FlightAware
04:12PM 43.6660 -95.5460 233° Southwest 452 520 35,000 750 Climbing FlightAware
04:13PM 43.6310 -95.6250 239° Southwest 449 517 35,500 882 Climbing FlightAware
04:13PM 43.6000 -95.7140 244° Southwest 449 517 36,000 917 Climbing FlightAware
04:14PM 43.5660 -95.8070 243° Southwest 447 514 36,600 971 Climbing FlightAware
04:15PM 43.5360 -95.8910 244° Southwest 445 512 37,100 882 Climbing FlightAware
04:15PM 43.5040 -95.9800 244° Southwest 444 511 37,600 507 Climbing FlightAware
04:16PM 43.4750 -96.0600 243° Southwest 443 510 37,700 343 Climbing FlightAware
04:16PM 43.4400 -96.1590 244° Southwest 443 510 38,000 247 Climbing FlightAware
04:17PM 43.4060 -96.2520 243° Southwest 442 509 38,000  Level FlightAware
04:17PM 43.3770 -96.3330 244° Southwest 442 509 38,000  Level FlightAware
04:18PM 43.3470 -96.4130 243° Southwest 440 506 38,000  Level FlightAware
04:19PM 43.3020 -96.5350 243° Southwest 440 506 38,000  Level FlightAware
04:19PM 43.2650 -96.6390 244° Southwest 438 504 38,000  Level FlightAware
04:20PM 43.2270 -96.7400 243° Southwest 438 504 38,000  Level FlightAware
04:21PM 43.1910 -96.8370 243° Southwest 437 503 38,000  Level FlightAware
04:22PM 43.1550 -96.9300 242° Southwest 438 504 38,000  Level FlightAware
04:22PM 43.1140 -97.0390 243° Southwest 439 505 38,000  Level FlightAware
04:23PM 43.0840 -97.1160 242° Southwest 439 505 38,000  Level FlightAware
04:24PM 43.0400 -97.2340 243° Southwest 443 510 38,000  Level FlightAware
04:24PM 43.0080 -97.3140 241° Southwest 443 510 38,000  Level FlightAware
04:25PM 42.9690 -97.4190 243° Southwest 448 516 38,000  Level FlightAware
04:25PM 42.9300 -97.5190 242° Southwest 450 518 38,000  Level FlightAware
04:26PM 42.8840 -97.6370 242° Southwest 453 521 38,000  Level FlightAware
04:27PM 42.8450 -97.7410 243° Southwest 455 524 38,000  Level FlightAware
04:28PM 42.8070 -97.8370 242° Southwest 456 525 38,000  Level FlightAware
04:28PM 42.7600 -97.9570 242° Southwest 456 525 38,000  Level FlightAware
04:29PM 42.7320 -98.0310 243° Southwest 456 525 38,000  Level FlightAware
04:30PM 42.7010 -98.1100 242° Southwest 456 525 38,000  Level FlightAware
04:30PM 42.6690 -98.1900 241° Southwest 456 525 38,000  Level FlightAware
04:31PM 42.6390 -98.2680 242° Southwest 456 525 38,000  Level FlightAware
04:31PM 42.6100 -98.3410 242° Southwest 456 525 38,000  Level FlightAware
04:32PM 42.5800 -98.4180 242° Southwest 456 525 38,000  Level FlightAware
04:33PM 42.5500 -98.4960 242° Southwest 456 525 38,000  Level FlightAware
04:33PM 42.5190 -98.5750 242° Southwest 456 525 38,000  Level FlightAware
04:34PM 42.4880 -98.6540 242° Southwest 456 525 38,000  Level FlightAware
04:34PM 42.4570 -98.7320 242° Southwest 456 525 38,000  Level FlightAware
04:35PM 42.4270 -98.8090 242° Southwest 456 525 38,000  Level FlightAware
04:36PM 42.3970 -98.8860 242° Southwest 456 525 38,000  Level FlightAware
04:36PM 42.3680 -98.9590 242° Southwest 456 525 38,000  Level FlightAware
04:37PM 42.3380 -99.0360 242° Southwest 456 525 38,000  Level FlightAware
04:37PM 42.3050 -99.1200 242° Southwest 456 525 38,000  Level FlightAware
04:38PM 42.2178 -99.3872 242° Southwest 447 514 38,000  Level Minneapolis Center
04:39PM 42.1842 -99.4786 244° Southwest 448 516 38,000  Level Denver Center
04:40PM 42.1064 -99.6878 243° Southwest 449 517 38,000  Level Denver Center
04:41PM 42.0567 -99.8214 243° Southwest 452 520 38,000  Level Denver Center
04:42PM 41.9950 -99.9883 244° Southwest 450 518 38,000  Level Denver Center
04:43PM 41.9406 -100.1314 243° Southwest 451 519 38,000  Level Denver Center
04:44PM 41.8778 -100.2981 243° Southwest 448 516 38,000  Level Denver Center
04:45PM 41.8233 -100.4411 243° Southwest 450 518 38,000  Level Denver Center
04:51PM 41.4640 -101.3700 243° Southwest 449 517 38,000  Level FlightAware
04:52PM 41.4310 -101.4560 243° Southwest 450 518 38,000  Level FlightAware
04:52PM 41.3990 -101.5370 242° Southwest 450 518 38,000  Level FlightAware
04:53PM 41.3630 -101.6280 242° Southwest 450 518 38,000  Level FlightAware
04:53PM 41.3300 -101.7110 242° Southwest 451 519 38,000  Level FlightAware
04:54PM 41.2970 -101.7940 242° Southwest 450 518 38,000  Level FlightAware
04:55PM 41.2620 -101.8820 242° Southwest 450 518 38,000  Level FlightAware
04:55PM 41.2260 -101.9730 242° Southwest 449 517 38,000  Level FlightAware
04:56PM 41.1920 -102.0570 242° Southwest 448 516 38,000  Level FlightAware
04:56PM 41.1630 -102.1280 242° Southwest 447 514 38,000  Level FlightAware
04:57PM 41.1300 -102.2100 242° Southwest 447 514 38,000  Level FlightAware
04:58PM 41.0870 -102.3160 242° Southwest 445 512 38,000  Level FlightAware
04:58PM 41.0490 -102.4090 242° Southwest 444 511 38,000  Level FlightAware
04:59PM 41.0170 -102.4880 242° Southwest 444 511 38,000  Level FlightAware
04:59PM 40.9810 -102.5770 242° Southwest 444 511 38,000  Level FlightAware
05:00PM 40.9560 -102.6390 242° Southwest 444 511 38,000  Level FlightAware
05:01PM 40.9160 -102.7340 241° Southwest 444 511 38,000  Level FlightAware
05:01PM 40.8800 -102.8230 242° Southwest 444 511 38,000  Level FlightAware
05:02PM 40.8460 -102.9040 241° Southwest 444 511 38,000  Level FlightAware
05:02PM 40.8100 -102.9920 242° Southwest 446 513 38,000  Level FlightAware
05:03PM 40.7750 -103.0780 242° Southwest 447 514 38,000  Level FlightAware
05:03PM 40.7420 -103.1540 240° Southwest 447 514 38,000  Level FlightAware
05:04PM 40.7080 -103.2360 241° Southwest 449 517 38,000  Level FlightAware
05:05PM 40.6710 -103.3270 242° Southwest 449 517 38,000  Level FlightAware
05:05PM 40.6350 -103.4130 241° Southwest 449 517 38,000  Level FlightAware
05:06PM 40.6010 -103.4920 240° Southwest 448 516 38,000  Level FlightAware
05:06PM 40.5650 -103.5770 241° Southwest 447 514 38,000  Level FlightAware
05:07PM 40.5300 -103.6600 241° Southwest 446 513 38,000  Level FlightAware
05:08PM 40.4980 -103.7360 241° Southwest 444 511 38,000  Level FlightAware
05:08PM 40.4600 -103.8260 241° Southwest 444 511 38,000  Level FlightAware
05:09PM 40.4230 -103.9100 240° Southwest 444 511 38,000  Level FlightAware
05:09PM 40.3880 -103.9950 242° Southwest 445 512 38,000  Level FlightAware
05:10PM 40.3550 -104.0700 240° Southwest 445 512 38,000  Level FlightAware
05:10PM 40.3230 -104.1450 241° Southwest 446 513 38,000  Level FlightAware
05:11PM 40.2840 -104.2350 240° Southwest 446 513 38,000  Level FlightAware
05:12PM 40.2500 -104.3210 243° Southwest 447 514 38,000  Level FlightAware
05:12PM 40.2250 -104.4100 250° West 446 513 38,000  Level FlightAware
05:13PM 40.1990 -104.5060 251° West 446 513 38,000  Level FlightAware
05:13PM 40.1780 -104.5880 251° West 447 514 38,000  Level FlightAware
05:14PM 40.1550 -104.6720 250° West 446 513 38,000  Level FlightAware
05:14PM 40.1350 -104.7510 252° West 445 512 38,000  Level FlightAware
05:15PM 40.1070 -104.8580 251° West 444 511 38,000  Level FlightAware
05:16PM 40.0830 -104.9490 251° West 444 511 38,000  Level FlightAware
05:16PM 40.0620 -105.0300 251° West 442 509 38,000  Level FlightAware
05:17PM 40.0370 -105.1260 251° West 441 507 38,000  Level FlightAware
05:18PM 40.0160 -105.2100 252° West 440 506 38,000  Level FlightAware
05:18PM 39.9920 -105.3050 252° West 439 505 38,000  Level FlightAware
05:19PM 39.9710 -105.3880 252° West 438 504 38,000  Level FlightAware
05:19PM 39.9490 -105.4730 251° West 438 504 38,000  Level FlightAware
05:20PM 39.9270 -105.5630 252° West 438 504 38,000  Level FlightAware
05:20PM 39.9040 -105.6540 252° West 437 503 38,000  Level FlightAware
05:21PM 39.8830 -105.7330 251° West 438 504 38,000  Level FlightAware
05:22PM 39.8590 -105.8230 251° West 438 504 38,000  Level FlightAware
05:22PM 39.8330 -105.9110 249° West 439 505 38,000  Level FlightAware
05:23PM 39.8010 -105.9910 243° Southwest 440 506 38,000  Level FlightAware
05:23PM 39.7620 -106.0720 238° Southwest 442 509 38,000  Level FlightAware
05:24PM 39.7220 -106.1500 236° Southwest 443 510 38,000  Level FlightAware
05:24PM 39.6850 -106.2230 237° Southwest 445 512 38,000  Level FlightAware
05:25PM 39.6480 -106.3000 238° Southwest 446 513 38,000  Level FlightAware
05:26PM 39.6050 -106.3860 237° Southwest 446 513 38,000  Level FlightAware
05:26PM 39.5670 -106.4620 237° Southwest 445 512 38,000  Level FlightAware
05:27PM 39.5280 -106.5410 237° Southwest 447 514 38,000  Level FlightAware
05:27PM 39.4900 -106.6170 237° Southwest 446 513 38,000  Level FlightAware
05:28PM 39.4470 -106.7020 237° Southwest 446 513 38,000  Level FlightAware
05:29PM 39.4130 -106.7710 237° Southwest 446 513 38,000  Level FlightAware
05:29PM 39.3760 -106.8450 237° Southwest 445 512 38,000  Level FlightAware
05:30PM 39.3410 -106.9140 237° Southwest 443 510 38,000  Level FlightAware
05:30PM 39.2990 -106.9950 236° Southwest 441 507 38,000  Level FlightAware
05:31PM 39.2580 -107.0770 237° Southwest 440 506 38,000  Level FlightAware
05:32PM 39.2130 -107.1650 237° Southwest 440 506 38,000  Level FlightAware
05:32PM 39.1830 -107.2240 237° Southwest 440 506 38,000  Level FlightAware
05:33PM 39.1400 -107.3090 237° Southwest 440 506 38,000  Level FlightAware
05:33PM 39.1000 -107.3860 236° Southwest 440 506 38,000  Level FlightAware
05:34PM 39.0610 -107.4600 236° Southwest 439 505 38,000  Level FlightAware
05:34PM 39.0170 -107.5470 237° Southwest 440 506 38,000  Level FlightAware
05:35PM 38.9730 -107.6320 236° Southwest 440 506 38,000  Level FlightAware
05:36PM 38.9400 -107.6980 237° Southwest 439 505 38,000  Level FlightAware
05:36PM 38.8880 -107.7980 236° Southwest 441 507 38,000  Level FlightAware
05:37PM 38.8470 -107.8760 236° Southwest 442 509 38,000  Level FlightAware
05:38PM 38.8080 -107.9500 236° Southwest 442 509 38,000  Level FlightAware
05:38PM 38.7660 -108.0310 236° Southwest 443 510 38,000  Level FlightAware
05:39PM 38.7350 -108.0900 236° Southwest 444 511 38,000  Level FlightAware
05:39PM 38.6860 -108.1840 236° Southwest 445 512 38,000  Level FlightAware
05:40PM 38.6340 -108.2820 236° Southwest 446 513 38,000  Level FlightAware
05:41PM 38.6010 -108.3460 237° Southwest 446 513 38,000  Level FlightAware
05:41PM 38.5720 -108.3980 235° Southwest 446 513 38,000  Level FlightAware
05:42PM 38.5230 -108.4920 236° Southwest 445 512 38,000  Level FlightAware
05:42PM 38.4760 -108.5810 236° Southwest 444 511 38,000  Level FlightAware
05:43PM 38.4360 -108.6540 235° Southwest 444 511 38,000  Level FlightAware
05:43PM 38.4000 -108.7210 236° Southwest 443 510 38,000  Level FlightAware
05:44PM 38.3670 -108.7840 236° Southwest 442 509 38,000  Level FlightAware
05:45PM 38.3180 -108.8760 236° Southwest 440 506 38,000  Level FlightAware
05:45PM 38.2730 -108.9590 235° Southwest 438 504 38,000  Level FlightAware
05:46PM 38.2370 -109.0250 235° Southwest 438 504 38,000  Level FlightAware
05:47PM 38.1870 -109.1190 236° Southwest 437 503 38,000  Level FlightAware
05:47PM 38.1500 -109.1860 235° Southwest 437 503 38,000  Level FlightAware
05:48PM 38.1070 -109.2650 235° Southwest 438 504 38,000  Level FlightAware
05:48PM 38.0710 -109.3300 235° Southwest 439 505 38,000  Level FlightAware
05:49PM 38.0320 -109.4020 235° Southwest 441 507 38,000  Level FlightAware
05:49PM 37.9870 -109.4850 235° Southwest 440 506 38,000  Level FlightAware
05:50PM 37.9460 -109.5600 235° Southwest 441 507 38,000  Level FlightAware
05:51PM 37.8940 -109.6550 235° Southwest 442 509 38,000  Level FlightAware
05:51PM 37.8630 -109.7110 235° Southwest 441 507 38,000  Level FlightAware
05:52PM 37.8170 -109.7950 235° Southwest 441 507 38,000  Level FlightAware
05:52PM 37.7840 -109.8540 235° Southwest 441 507 38,000  Level FlightAware
05:53PM 37.7300 -109.9510 235° Southwest 440 506 38,000  Level FlightAware
05:54PM 37.6900 -110.0230 235° Southwest 439 505 38,000  Level FlightAware
05:54PM 37.6460 -110.1030 235° Southwest 439 505 38,000  Level FlightAware
05:55PM 37.6100 -110.1670 235° Southwest 439 505 38,000  Level FlightAware
05:56PM 37.5740 -110.2330 235° Southwest 439 505 38,000  Level FlightAware
05:56PM 37.5370 -110.2990 235° Southwest 439 505 38,000  Level FlightAware
05:57PM 37.5000 -110.3650 235° Southwest 439 505 38,000  Level FlightAware
05:58PM 37.4650 -110.4290 235° Southwest 439 505 38,000  Level FlightAware
05:58PM 37.4280 -110.4950 235° Southwest 439 505 38,000  Level FlightAware
05:59PM 37.3920 -110.5590 235° Southwest 439 505 38,000  Level FlightAware
05:59PM 37.2950 -110.7240 234° Southwest 441 507 38,000  Level FlightAware
06:00PM 37.2510 -110.8040 235° Southwest 443 510 38,000  Level FlightAware
06:00PM 37.2230 -110.8510 233° Southwest 443 510 38,000  Level FlightAware
06:01PM 37.1780 -110.9310 235° Southwest 444 511 38,000  Level FlightAware
06:01PM 37.1340 -111.0080 234° Southwest 445 512 38,000  Level FlightAware
06:02PM 37.0910 -111.0820 234° Southwest 445 512 38,000  Level FlightAware
06:03PM 37.0520 -111.1510 235° Southwest 444 511 38,000  Level FlightAware
06:03PM 37.0100 -111.2240 234° Southwest 443 510 38,000  Level FlightAware
06:04PM 36.9690 -111.2940 234° Southwest 443 510 38,000  Level FlightAware
06:04PM 36.9250 -111.3690 234° Southwest 442 509 38,000  Level FlightAware
06:05PM 36.8850 -111.4390 234° Southwest 441 507 38,000  Level FlightAware
06:06PM 36.8400 -111.5150 234° Southwest 441 507 38,000  Level FlightAware
06:06PM 36.7860 -111.6100 235° Southwest 440 506 38,000  Level FlightAware
06:07PM 36.7370 -111.6920 233° Southwest 441 507 38,000  Level FlightAware
06:08PM 36.7010 -111.7540 234° Southwest 441 507 38,000  Level FlightAware
06:08PM 36.6540 -111.8340 234° Southwest 442 509 38,000  Level FlightAware
06:09PM 36.6160 -111.9000 234° Southwest 443 510 38,000  Level FlightAware
06:09PM 36.5670 -111.9820 233° Southwest 443 510 38,000  Level FlightAware
06:10PM 36.5290 -112.0480 234° Southwest 443 510 38,000  Level FlightAware
06:10PM 36.4850 -112.1220 234° Southwest 444 511 38,000  Level FlightAware
06:11PM 36.4480 -112.1830 233° Southwest 444 511 38,000  Level FlightAware
06:11PM 36.4110 -112.2450 233° Southwest 445 512 38,000  Level FlightAware
06:12PM 36.3650 -112.3190 232° Southwest 444 511 38,000  Level FlightAware
06:13PM 36.3180 -112.3940 232° Southwest 444 511 38,000  Level FlightAware
06:13PM 36.2810 -112.4540 233° Southwest 443 510 38,000  Level FlightAware
06:14PM 36.2380 -112.5230 232° Southwest 442 509 38,000  Level FlightAware
06:14PM 36.1880 -112.6030 232° Southwest 440 506 38,000  Level FlightAware
06:15PM 36.1430 -112.6740 232° Southwest 439 505 38,000  Level FlightAware
06:16PM 36.0980 -112.7460 232° Southwest 438 504 38,000  Level FlightAware
06:16PM 36.0580 -112.8090 232° Southwest 437 503 38,000  Level FlightAware
06:17PM 36.0130 -112.8800 232° Southwest 436 502 38,000  Level FlightAware
06:17PM 35.9700 -112.9490 232° Southwest 436 502 38,000  Level FlightAware
06:18PM 35.9260 -113.0260 235° Southwest 437 503 38,000  Level FlightAware
06:19PM 35.8920 -113.0910 237° Southwest 438 504 38,000  Level FlightAware
06:19PM 35.8460 -113.1640 232° Southwest 440 506 38,000  Level FlightAware
06:20PM 35.8060 -113.2250 231° Southwest 439 505 38,000  Level FlightAware
06:20PM 35.7630 -113.2910 231° Southwest 439 505 38,000  Level FlightAware
06:21PM 35.7120 -113.3720 232° Southwest 439 505 38,000  Level FlightAware
06:21PM 35.6720 -113.4350 232° Southwest 439 505 38,000  Level FlightAware
06:22PM 35.6240 -113.5090 231° Southwest 440 506 38,000  Level FlightAware
06:23PM 35.5800 -113.5760 231° Southwest 440 506 38,000  Level FlightAware
06:23PM 35.5390 -113.6380 231° Southwest 439 505 38,000  Level FlightAware
06:24PM 35.4950 -113.7090 233° Southwest 439 505 38,000  Level FlightAware
06:24PM 35.4480 -113.7810 231° Southwest 441 507 38,000  Level FlightAware
06:25PM 35.4110 -113.8360 230° Southwest 442 509 38,000  Level FlightAware
06:26PM 35.3570 -113.9180 231° Southwest 441 507 38,000  Level FlightAware
06:26PM 35.3120 -113.9860 231° Southwest 442 509 38,000  Level FlightAware
06:27PM 35.2720 -114.0490 232° Southwest 441 507 38,000  Level FlightAware
06:27PM 35.2280 -114.1150 231° Southwest 441 507 38,000  Level FlightAware
06:28PM 35.1790 -114.1880 231° Southwest 441 507 38,000  Level FlightAware
06:28PM 35.1350 -114.2560 232° Southwest 439 505 38,000  Level FlightAware
06:29PM 35.0880 -114.3250 230° Southwest 440 506 38,000  Level FlightAware
06:29PM 35.0700 -114.3440 221° Southwest 439 505 38,000  Level FlightAware
06:30PM 35.0160 -114.3750 205° Southwest 437 503 38,000  Level FlightAware
06:30PM 34.9450 -114.3950 193° South 437 503 38,000  Level FlightAware
06:31PM 34.8740 -114.4140 192° South 438 504 38,000  Level FlightAware
06:31PM 34.8150 -114.4300 193° South 438 504 38,000  Level FlightAware
06:32PM 34.7390 -114.4500 192° South 439 505 38,000  Level FlightAware
06:33PM 34.6660 -114.4680 191° South 441 507 38,000  Level FlightAware
06:33PM 34.5940 -114.4870 192° South 442 509 38,000  Level FlightAware
06:34PM 34.5310 -114.5030 192° South 443 510 38,000  Level FlightAware
06:34PM 34.4610 -114.5270 196° South 443 510 38,000  Level FlightAware
06:35PM 34.4300 -114.5500 211° Southwest 443 510 38,000  Level FlightAware
06:35PM 34.4030 -114.5810 223° Southwest 443 510 38,000  Level FlightAware
06:36PM 34.3740 -114.6590 246° West 446 513 38,000  Level FlightAware
06:36PM 34.3550 -114.7660 258° West 444 511 38,000  Level FlightAware
06:37PM 34.3410 -114.8510 259° West 442 509 38,000  Level FlightAware
06:37PM 34.3290 -114.9260 259° West 441 507 38,000  Level FlightAware
06:38PM 34.3130 -115.0180 258° West 440 506 38,000  Level FlightAware
06:39PM 34.2880 -115.1020 250° West 439 505 38,000  Level FlightAware
06:39PM 34.2570 -115.1970 248° West 439 505 38,000  Level FlightAware
06:40PM 34.2310 -115.2800 249° West 436 502 38,000 -179 Level FlightAware
06:40PM 34.2100 -115.3500 250° West 429 494 37,800 -971 Descending FlightAware
06:41PM 34.1830 -115.4330 249° West 416 479 36,900 -1,437 Descending FlightAware
06:42PM 34.1600 -115.5020 248° West 412 474 36,100 -1,371 Descending FlightAware
06:42PM 34.1340 -115.5810 248° West 410 472 35,300 -1,352 Descending FlightAware
06:43PM 34.1090 -115.6550 248° West 412 474 34,500 -1,391 Descending FlightAware
06:43PM 34.0870 -115.7240 249° West 412 474 33,700 -870 Descending FlightAware
06:44PM 34.0640 -115.7920 248° West 412 474 33,500 -171 Descending FlightAware
06:45PM 34.0420 -115.8580 248° West 412 474 33,500 -1,059 Level FlightAware
06:45PM 34.0050 -115.9730 249° West 418 481 32,000 -1,607 Descending FlightAware
06:45PM 34.0020 -116.0020 263° West 410 472 32,000 -143 Level FlightAware
06:46PM 33.9970 -116.0800 266° West 409 471 31,900 -686 Descending FlightAware
06:47PM 33.9940 -116.1600 267° West 410 472 31,200 -1,268 Descending FlightAware
06:47PM 33.9910 -116.2440 268° West 406 467 30,400 -1,521 Descending FlightAware
06:48PM 33.9880 -116.3220 267° West 397 457 29,400 -1,754 Descending FlightAware
06:48PM 33.9860 -116.3850 268° West 391 450 28,500 -833 Descending FlightAware
06:49PM 33.9820 -116.4640 267° West 390 449 28,400 -1,946 Descending FlightAware
06:50PM 33.9790 -116.5430 267° West 387 445 26,100 -3,273 Descending FlightAware
06:50PM 33.9760 -116.6200 267° West 387 445 24,800 -2,197 Descending FlightAware
06:51PM 33.9730 -116.6970 267° West 384 442 23,500 -2,029 Descending FlightAware
06:51PM 33.9700 -116.7650 267° West 375 432 22,500 -1,800 Descending FlightAware
06:52PM 33.9660 -116.8430 266° West 359 413 21,400 -1,920 Descending FlightAware
06:53PM 33.9630 -116.9160 267° West 352 405 20,100 -2,028 Descending FlightAware
06:53PM 33.9600 -116.9840 267° West 349 402 19,000 -1,676 Descending FlightAware
06:54PM 33.9580 -117.0460 268° West 345 397 18,200 -1,478 Descending FlightAware
06:54PM 33.9510 -117.1130 263° West 335 386 17,300 -1,268 Descending FlightAware
06:55PM 33.9280 -117.1730 245° Southwest 321 369 16,700 -1,147 Descending FlightAware
06:55PM 33.9050 -117.2270 243° Southwest 330 380 16,000 -1,183 Descending FlightAware
06:56PM 33.8800 -117.2870 243° Southwest 327 376 15,300 -1,200 Descending FlightAware
06:56PM 33.8740 -117.3110 253° West 324 373 15,000 -692 Descending FlightAware
06:56PM 33.8740 -117.3330 270° West 322 371 15,000  Level FlightAware
06:57PM 33.8870 -117.3970 284° West 319 367 15,000 -676 Level FlightAware
06:58PM 33.8990 -117.4570 284° West 318 366 14,200 -1,437 Descending FlightAware
06:58PM 33.9110 -117.5190 283° West 317 365 13,300 -1,478 Descending FlightAware
06:59PM 33.9230 -117.5760 284° West 310 357 12,500 -1,500 Descending FlightAware
06:59PM 33.9340 -117.6350 283° West 310 357 11,600 -1,521 Descending FlightAware
07:00PM 33.9460 -117.6950 284° West 306 352 10,700 -1,417 Descending FlightAware
07:01PM 33.9580 -117.7520 284° West 299 344 9,900 -1,418 Descending FlightAware
07:01PM 33.9640 -117.7840 283° West 297 342 9,400 -1,610 Descending FlightAware
07:01PM 33.9710 -117.8200 283° West 296 341 8,800 -1,297 Descending FlightAware
07:02PM 33.9750 -117.8420 282° West 293 337 8,600 -667 Descending FlightAware
07:02PM 33.9820 -117.8770 284° West 278 320 8,400 -563 Descending FlightAware
07:02PM 33.9840 -117.8930 279° West 271 312 8,300 -714 Descending FlightAware
07:03PM 33.9820 -117.9390 267° West 259 298 7,900 -941 Descending FlightAware
07:03PM 33.9790 -117.9660 262° West 257 296 7,500 -1,050 Descending FlightAware
07:03PM 33.9760 -117.9950 263° West 246 283 7,200 -750 Descending FlightAware
07:03PM 33.9740 -118.0100 261° West 236 272 7,100 -686 Descending FlightAware
07:04PM 33.9710 -118.0400 263° West 214 246 6,800 -973 Descending FlightAware
07:04PM 33.9700 -118.0560 266° West 208 239 6,500 -1,371 Descending FlightAware
07:04PM 33.9680 -118.0800 264° West 202 232 6,000 -1,463 Descending FlightAware
07:05PM 33.9660 -118.1020 264° West 197 227 5,500 -1,600 Descending FlightAware
07:05PM 33.9630 -118.1290 262° West 195 224 4,800 -1,600 Descending FlightAware
07:05PM 33.9610 -118.1510 264° West 196 226 4,300 -1,692 Descending FlightAware
07:06PM 33.9590 -118.1720 263° West 195 224 3,700 -1,610 Descending FlightAware
07:06PM 33.9560 -118.1940 261° West 193 222 3,200 -1,317 Descending FlightAware
07:06PM 33.9550 -118.2140 267° West 190 219 2,800 -1,317 Descending FlightAware
07:07PM 33.9520 -118.2380 261° West 188 216 2,300 -1,102 Descending FlightAware
07:07PM 33.9490 -118.2650 262° West 184 212 1,900 -735 Descending FlightAware
07:08PM 33.9470 -118.2850 263° West 176 203 1,700 -545 Descending FlightAware
07:08PM 33.9460 -118.2940 262° West 157 181 1,600 -727 Descending FlightAware
07:08PM 33.9440 -118.3130 263° West 149 171 1,300 -778 Descending FlightAware
07:09PM 33.9410 -118.3400 262° West 141 162 900 -714 Descending FlightAware
07:09PM 33.9410 -118.3480 270° West 139 160 800 -727 Descending FlightAware
07:09PM 33.9390 -118.3660 262° West 135 155 500 -706 Descending FlightAware
07:09PM 33.9380 -118.3710 256° West 145 167 400 -686 Descending FlightAware
07:10PM 33.9360 -118.3940 264° West 137 158 100 -529 Descending FlightAware
07:10PM 33.9360 -118.3980 270° West 127 146 100  Level FlightAware
07:11PM 33.9340 -118.4180 263° West 106 122 100  Level FlightAware
07:11PM 33.9360 -118.4120 68° East 106 122 100  Level FlightAware
07:11PM 33.9340 -118.4250 259° West 106 122 100  Level FlightAware